createdAt,value
2017-07-15T00:00:01.013Z,12.71
2017-07-15T00:00:05.101Z,12.71
2017-07-15T00:00:09.182Z,12.76
2017-07-15T00:00:13.136Z,12.73
2017-07-15T00:00:17.221Z,12.74
2017-07-15T00:00:21.441Z,12.76
2017-07-15T00:00:25.786Z,12.73
2017-07-15T00:00:29.855Z,12.73
2017-07-15T00:00:33.925Z,12.73
2017-07-15T00:00:37.999Z,12.7
2017-07-15T00:00:42.084Z,12.73
2017-07-15T00:00:46.412Z,12.71
2017-07-15T00:00:50.365Z,12.71
2017-07-15T00:00:54.574Z,12.63
2017-07-15T00:00:58.669Z,12.73
2017-07-15T00:01:02.676Z,12.73
2017-07-15T00:01:06.620Z,12.7
2017-07-15T00:01:10.699Z,12.73
2017-07-15T00:01:14.763Z,12.71
2017-07-15T00:01:18.967Z,12.74
2017-07-15T00:01:22.910Z,12.76
2017-07-15T00:01:26.881Z,12.74
2017-07-15T00:01:30.980Z,12.73
2017-07-15T00:01:34.805Z,12.74
2017-07-15T00:01:39.000Z,12.73
2017-07-15T00:01:42.967Z,12.74
2017-07-15T00:01:47.060Z,12.73
2017-07-15T00:01:51.140Z,12.76
2017-07-15T00:01:54.983Z,12.77
2017-07-15T00:01:59.195Z,12.79
2017-07-15T00:02:03.511Z,12.76
2017-07-15T00:02:07.590Z,12.74
2017-07-15T00:02:11.678Z,12.74
2017-07-15T00:02:15.624Z,12.74
2017-07-15T00:02:19.833Z,12.76
2017-07-15T00:02:23.798Z,12.71
2017-07-15T00:02:28.011Z,12.71
2017-07-15T00:02:32.354Z,12.7
2017-07-15T00:02:36.304Z,12.71
2017-07-15T00:02:40.410Z,12.76
2017-07-15T00:02:44.491Z,12.77
2017-07-15T00:02:48.820Z,12.71
2017-07-15T00:02:52.655Z,12.7
2017-07-15T00:02:56.992Z,12.73
2017-07-15T00:03:00.963Z,12.73
2017-07-15T00:03:05.294Z,12.74
2017-07-15T00:03:09.251Z,12.7
2017-07-15T00:03:13.699Z,12.73
2017-07-15T00:03:17.897Z,12.73
2017-07-15T00:03:21.731Z,12.73
2017-07-15T00:03:25.548Z,12.74
2017-07-15T00:03:29.756Z,12.74
2017-07-15T00:03:33.834Z,12.73
2017-07-15T00:03:37.787Z,12.74
2017-07-15T00:03:41.883Z,12.74
2017-07-15T00:03:45.971Z,12.71
2017-07-15T00:03:50.051Z,12.71
2017-07-15T00:03:54.140Z,12.74
2017-07-15T00:03:58.223Z,12.7
2017-07-15T00:04:02.065Z,12.74
2017-07-15T00:04:06.023Z,12.8
2017-07-15T00:04:09.988Z,12.74
2017-07-15T00:04:13.807Z,12.79
2017-07-15T00:04:17.885Z,12.77
2017-07-15T00:04:22.215Z,12.8
2017-07-15T00:04:26.288Z,12.74
2017-07-15T00:04:30.232Z,12.77
2017-07-15T00:04:34.309Z,12.74
2017-07-15T00:04:38.114Z,12.74
2017-07-15T00:04:42.186Z,12.79
2017-07-15T00:04:45.887Z,12.85
2017-07-15T00:04:49.852Z,12.73
2017-07-15T00:04:53.812Z,12.74
2017-07-15T00:04:58.028Z,12.85
2017-07-15T00:05:02.225Z,12.77
2017-07-15T00:05:06.175Z,12.73
2017-07-15T00:05:09.992Z,12.73
2017-07-15T00:05:13.945Z,12.73
2017-07-15T00:05:17.907Z,12.81
2017-07-15T00:05:22.113Z,12.81
2017-07-15T00:05:26.187Z,12.71
2017-07-15T00:05:30.394Z,12.76
2017-07-15T00:05:34.490Z,12.81
2017-07-15T00:05:38.696Z,12.84
2017-07-15T00:05:42.888Z,12.74
2017-07-15T00:05:46.971Z,12.84
2017-07-15T00:05:51.203Z,12.8
2017-07-15T00:05:55.279Z,12.8
2017-07-15T00:05:59.226Z,12.8
2017-07-15T00:06:03.053Z,12.77
2017-07-15T00:06:07.006Z,12.76
2017-07-15T00:06:11.083Z,12.81
2017-07-15T00:06:14.915Z,12.77
2017-07-15T00:06:19.244Z,12.77
2017-07-15T00:06:23.446Z,12.81
2017-07-15T00:06:27.397Z,12.84
2017-07-15T00:06:31.486Z,12.84
2017-07-15T00:06:35.430Z,12.84
2017-07-15T00:06:39.642Z,12.84
2017-07-15T00:06:43.716Z,12.85
2017-07-15T00:06:47.918Z,12.85
2017-07-15T00:06:52.258Z,12.8
2017-07-15T00:06:56.595Z,12.79
2017-07-15T00:07:00.806Z,12.77
2017-07-15T00:07:04.926Z,12.85
2017-07-15T00:07:09.127Z,12.76
2017-07-15T00:07:13.572Z,12.71
2017-07-15T00:07:18.083Z,12.77
2017-07-15T00:07:22.163Z,12.84
2017-07-15T00:07:26.487Z,12.76
2017-07-15T00:07:30.433Z,12.79
2017-07-15T00:07:34.246Z,12.79
2017-07-15T00:07:38.327Z,12.73
2017-07-15T00:07:42.533Z,12.73
2017-07-15T00:07:46.355Z,12.79
2017-07-15T00:07:50.545Z,12.69
2017-07-15T00:07:54.897Z,12.84
2017-07-15T00:07:58.979Z,12.73
2017-07-15T00:08:03.056Z,12.8
2017-07-15T00:08:07.252Z,12.85
2017-07-15T00:08:11.586Z,12.8
2017-07-15T00:08:15.919Z,12.73
2017-07-15T00:08:19.878Z,12.79
2017-07-15T00:08:23.970Z,12.81
2017-07-15T00:08:28.175Z,12.8
2017-07-15T00:08:32.378Z,12.79
2017-07-15T00:08:36.464Z,12.8
2017-07-15T00:08:40.538Z,12.76
2017-07-15T00:08:44.611Z,12.73
2017-07-15T00:08:49.072Z,12.73
2017-07-15T00:08:53.011Z,12.73
2017-07-15T00:08:57.227Z,12.84
2017-07-15T00:09:01.308Z,12.87
2017-07-15T00:09:05.500Z,12.73
2017-07-15T00:09:09.569Z,12.81
2017-07-15T00:09:13.391Z,12.87
2017-07-15T00:09:17.463Z,12.84
2017-07-15T00:09:21.798Z,12.81
2017-07-15T00:09:25.999Z,12.84
2017-07-15T00:09:30.083Z,12.85
2017-07-15T00:09:34.410Z,12.81
2017-07-15T00:09:38.368Z,12.84
2017-07-15T00:09:42.714Z,12.79
2017-07-15T00:09:46.810Z,12.84
2017-07-15T00:09:51.029Z,12.84
2017-07-15T00:09:55.366Z,12.77
2017-07-15T00:09:59.578Z,12.89
2017-07-15T00:10:03.681Z,12.87
2017-07-15T00:10:07.882Z,12.79
2017-07-15T00:10:11.963Z,12.91
2017-07-15T00:10:16.043Z,12.84
2017-07-15T00:10:19.986Z,12.85
2017-07-15T00:10:24.055Z,12.91
2017-07-15T00:10:28.016Z,12.87
2017-07-15T00:10:32.222Z,12.85
2017-07-15T00:10:36.183Z,12.81
2017-07-15T00:10:40.266Z,12.87
2017-07-15T00:10:44.471Z,12.85
2017-07-15T00:10:48.552Z,12.87
2017-07-15T00:10:52.751Z,12.85
2017-07-15T00:10:57.092Z,12.84
2017-07-15T00:11:01.187Z,12.87
2017-07-15T00:11:05.024Z,12.87
2017-07-15T00:11:09.097Z,12.89
2017-07-15T00:11:13.178Z,12.87
2017-07-15T00:11:17.623Z,12.87
2017-07-15T00:11:21.938Z,12.88
2017-07-15T00:11:26.155Z,12.89
2017-07-15T00:11:30.244Z,12.88
2017-07-15T00:11:34.324Z,12.88
2017-07-15T00:11:38.403Z,12.89
2017-07-15T00:11:42.628Z,12.89
2017-07-15T00:11:46.581Z,12.94
2017-07-15T00:11:50.811Z,12.92
2017-07-15T00:11:55.138Z,12.88
2017-07-15T00:11:59.347Z,12.89
2017-07-15T00:12:03.303Z,12.91
2017-07-15T00:12:07.259Z,12.87
2017-07-15T00:12:11.462Z,12.91
2017-07-15T00:12:15.423Z,12.87
2017-07-15T00:12:19.614Z,12.91
2017-07-15T00:12:23.704Z,12.89
2017-07-15T00:12:27.534Z,12.88
2017-07-15T00:12:32.002Z,12.91
2017-07-15T00:12:36.086Z,12.91
2017-07-15T00:12:40.147Z,12.92
2017-07-15T00:12:44.238Z,12.87
2017-07-15T00:12:48.578Z,12.95
2017-07-15T00:12:52.658Z,12.91
2017-07-15T00:12:56.881Z,12.89
2017-07-15T00:13:00.970Z,12.94
2017-07-15T00:13:05.236Z,12.96
2017-07-15T00:13:09.302Z,12.91
2017-07-15T00:13:13.379Z,12.91
2017-07-15T00:13:17.475Z,12.95
2017-07-15T00:13:21.427Z,12.94
2017-07-15T00:13:25.498Z,12.92
2017-07-15T00:13:29.321Z,12.94
2017-07-15T00:13:33.407Z,12.95
2017-07-15T00:13:37.485Z,12.91
2017-07-15T00:13:41.685Z,12.91
2017-07-15T00:13:45.640Z,12.92
2017-07-15T00:13:49.855Z,12.92
2017-07-15T00:13:54.066Z,12.81
2017-07-15T00:13:58.273Z,12.94
2017-07-15T00:14:02.406Z,12.94
2017-07-15T00:14:06.254Z,12.92
2017-07-15T00:14:10.068Z,12.92
2017-07-15T00:14:14.001Z,12.89
2017-07-15T00:14:18.223Z,12.92
2017-07-15T00:14:22.427Z,12.95
2017-07-15T00:14:26.380Z,12.98
2017-07-15T00:14:30.583Z,12.95
2017-07-15T00:14:34.546Z,12.94
2017-07-15T00:14:38.735Z,12.94
2017-07-15T00:14:42.819Z,12.92
2017-07-15T00:14:46.782Z,12.94
2017-07-15T00:14:50.742Z,12.92
2017-07-15T00:14:54.820Z,12.94
2017-07-15T00:14:58.897Z,12.96
2017-07-15T00:15:03.313Z,12.96
2017-07-15T00:15:07.134Z,12.96
2017-07-15T00:15:11.217Z,12.99
2017-07-15T00:15:15.291Z,12.94
2017-07-15T00:15:19.249Z,12.95
2017-07-15T00:15:23.452Z,13.01
2017-07-15T00:15:27.524Z,12.95
2017-07-15T00:15:31.487Z,12.99
2017-07-15T00:15:35.562Z,12.95
2017-07-15T00:15:39.764Z,12.95
2017-07-15T00:15:43.848Z,12.89
2017-07-15T00:15:47.789Z,12.95
2017-07-15T00:15:51.994Z,12.95
2017-07-15T00:15:56.195Z,12.95
2017-07-15T00:16:00.403Z,12.94
2017-07-15T00:16:04.094Z,12.94
2017-07-15T00:16:07.938Z,12.91
2017-07-15T00:16:12.266Z,12.98
2017-07-15T00:16:15.959Z,12.98
2017-07-15T00:16:20.170Z,12.95
2017-07-15T00:16:24.302Z,12.91
2017-07-15T00:16:28.630Z,13.03
2017-07-15T00:16:32.587Z,12.94
2017-07-15T00:16:36.411Z,12.95
2017-07-15T00:16:40.499Z,12.95
2017-07-15T00:16:44.816Z,12.98
2017-07-15T00:16:48.878Z,12.96
2017-07-15T00:16:52.974Z,12.96
2017-07-15T00:16:57.454Z,12.94
2017-07-15T00:17:01.534Z,12.92
2017-07-15T00:17:05.357Z,12.91
2017-07-15T00:17:09.308Z,12.94
2017-07-15T00:17:13.266Z,12.94
2017-07-15T00:17:17.486Z,12.95
2017-07-15T00:17:21.576Z,12.94
2017-07-15T00:17:25.910Z,12.94
2017-07-15T00:17:30.122Z,12.95
2017-07-15T00:17:34.203Z,12.98
2017-07-15T00:17:38.274Z,12.92
2017-07-15T00:17:42.482Z,12.96
2017-07-15T00:17:46.558Z,12.95
2017-07-15T00:17:50.754Z,12.95
2017-07-15T00:17:54.714Z,12.92
2017-07-15T00:17:59.050Z,12.95
2017-07-15T00:18:03.256Z,12.95
2017-07-15T00:18:07.211Z,12.92
2017-07-15T00:18:11.295Z,12.95
2017-07-15T00:18:15.375Z,12.92
2017-07-15T00:18:19.567Z,12.94
2017-07-15T00:18:23.636Z,12.98
2017-07-15T00:18:27.461Z,13.01
2017-07-15T00:18:31.563Z,12.95
2017-07-15T00:18:35.628Z,12.98
2017-07-15T00:18:39.712Z,12.91
2017-07-15T00:18:43.922Z,13.01
2017-07-15T00:18:47.883Z,12.98
2017-07-15T00:18:51.698Z,12.96
2017-07-15T00:18:55.893Z,12.95
2017-07-15T00:19:00.114Z,12.94
2017-07-15T00:19:03.935Z,12.96
2017-07-15T00:19:08.017Z,12.96
2017-07-15T00:19:12.222Z,12.99
2017-07-15T00:19:16.581Z,12.94
2017-07-15T00:19:20.667Z,12.96
2017-07-15T00:19:24.994Z,12.98
2017-07-15T00:19:29.341Z,12.98
2017-07-15T00:19:33.571Z,12.96
2017-07-15T00:19:37.650Z,12.94
2017-07-15T00:19:41.736Z,12.95
2017-07-15T00:19:45.826Z,12.99
2017-07-15T00:19:50.050Z,12.99
2017-07-15T00:19:54.385Z,12.98
2017-07-15T00:19:58.589Z,12.98
2017-07-15T00:20:02.687Z,12.98
2017-07-15T00:20:06.647Z,12.94
2017-07-15T00:20:10.715Z,12.98
2017-07-15T00:20:14.537Z,12.92
2017-07-15T00:20:18.615Z,13.04
2017-07-15T00:20:23.098Z,12.96
2017-07-15T00:20:27.066Z,13.03
2017-07-15T00:20:31.421Z,12.95
2017-07-15T00:20:35.499Z,12.92
2017-07-15T00:20:39.312Z,12.95
2017-07-15T00:20:43.143Z,13.01
2017-07-15T00:20:47.342Z,12.94
2017-07-15T00:20:51.558Z,12.92
2017-07-15T00:20:55.926Z,13.01
2017-07-15T00:20:59.887Z,12.95
2017-07-15T00:21:03.934Z,13.01
2017-07-15T00:21:08.264Z,12.99
2017-07-15T00:21:12.107Z,12.96
2017-07-15T00:21:16.185Z,12.96
2017-07-15T00:21:20.524Z,12.94
2017-07-15T00:21:24.468Z,12.96
2017-07-15T00:21:28.662Z,12.98
2017-07-15T00:21:32.357Z,12.98
2017-07-15T00:21:36.054Z,12.95
2017-07-15T00:21:39.868Z,12.95
2017-07-15T00:21:43.810Z,12.96
2017-07-15T00:21:48.021Z,12.98
2017-07-15T00:21:51.849Z,12.98
2017-07-15T00:21:56.196Z,12.98
2017-07-15T00:22:00.396Z,12.96
2017-07-15T00:22:04.199Z,12.96
2017-07-15T00:22:07.905Z,13.03
2017-07-15T00:22:11.603Z,12.96
2017-07-15T00:22:15.302Z,13.03
2017-07-15T00:22:19.134Z,13.04
2017-07-15T00:22:22.828Z,12.96
2017-07-15T00:22:26.527Z,13.01
2017-07-15T00:22:30.350Z,12.99
2017-07-15T00:22:34.045Z,12.99
2017-07-15T00:22:37.754Z,12.98
2017-07-15T00:22:41.432Z,12.98
2017-07-15T00:22:45.122Z,13.01
2017-07-15T00:22:48.821Z,12.94
2017-07-15T00:22:52.653Z,12.98
2017-07-15T00:22:56.610Z,12.94
2017-07-15T00:23:00.443Z,12.89
2017-07-15T00:23:04.237Z,13.04
2017-07-15T00:23:07.942Z,12.96
2017-07-15T00:23:11.648Z,12.96
2017-07-15T00:23:15.341Z,13.01
2017-07-15T00:23:19.036Z,12.96
2017-07-15T00:23:22.858Z,12.98
2017-07-15T00:23:26.555Z,13.06
2017-07-15T00:23:30.265Z,12.98
2017-07-15T00:23:33.971Z,12.98
2017-07-15T00:23:37.795Z,12.94
2017-07-15T00:23:41.490Z,12.98
2017-07-15T00:23:45.184Z,13.01
2017-07-15T00:23:48.888Z,12.91
2017-07-15T00:23:52.579Z,12.96
2017-07-15T00:23:56.406Z,12.96
2017-07-15T00:24:00.231Z,13.06
2017-07-15T00:24:03.927Z,12.98
2017-07-15T00:24:07.770Z,12.96
2017-07-15T00:24:11.449Z,12.96
2017-07-15T00:24:15.279Z,12.96
2017-07-15T00:24:19.214Z,12.95
2017-07-15T00:24:22.911Z,12.96
2017-07-15T00:24:26.985Z,12.96
2017-07-15T00:24:31.326Z,12.96
2017-07-15T00:24:35.396Z,12.98
2017-07-15T00:24:39.483Z,12.98
2017-07-15T00:24:43.562Z,12.99
2017-07-15T00:24:47.896Z,12.96
2017-07-15T00:24:51.846Z,13.01
2017-07-15T00:24:55.675Z,13.04
2017-07-15T00:24:59.753Z,12.98
2017-07-15T00:25:03.690Z,13.01
2017-07-15T00:25:07.634Z,12.94
2017-07-15T00:25:11.714Z,12.99
2017-07-15T00:25:15.663Z,12.98
2017-07-15T00:25:19.616Z,13.03
2017-07-15T00:25:23.809Z,12.98
2017-07-15T00:25:27.762Z,12.98
2017-07-15T00:25:32.021Z,13.04
2017-07-15T00:25:35.834Z,13.01
2017-07-15T00:25:40.033Z,12.96
2017-07-15T00:25:44.373Z,12.96
2017-07-15T00:25:48.459Z,12.98
2017-07-15T00:25:52.393Z,12.98
2017-07-15T00:25:56.842Z,12.95
2017-07-15T00:26:00.804Z,12.96
2017-07-15T00:26:04.754Z,13.01
2017-07-15T00:26:08.588Z,13.03
2017-07-15T00:26:13.044Z,13.03
2017-07-15T00:26:17.377Z,13.06
2017-07-15T00:26:21.209Z,13.06
2017-07-15T00:26:25.170Z,12.95
2017-07-15T00:26:29.252Z,12.98
2017-07-15T00:26:33.454Z,13.03
2017-07-15T00:26:37.271Z,12.99
2017-07-15T00:26:41.609Z,13.04
2017-07-15T00:26:45.802Z,13.03
2017-07-15T00:26:49.998Z,12.96
2017-07-15T00:26:54.086Z,13.04
2017-07-15T00:26:58.313Z,12.98
2017-07-15T00:27:02.270Z,13.06
2017-07-15T00:27:06.209Z,12.95
2017-07-15T00:27:10.284Z,13.03
2017-07-15T00:27:14.726Z,12.92
2017-07-15T00:27:19.273Z,12.99
2017-07-15T00:27:23.488Z,13.04
2017-07-15T00:27:27.696Z,13.01
2017-07-15T00:27:31.778Z,12.98
2017-07-15T00:27:35.724Z,12.98
2017-07-15T00:27:39.801Z,13.06
2017-07-15T00:27:44.008Z,12.99
2017-07-15T00:27:48.345Z,13.12
2017-07-15T00:27:52.423Z,12.99
2017-07-15T00:27:56.646Z,13.03
2017-07-15T00:28:00.717Z,12.98
2017-07-15T00:28:04.815Z,13.03
2017-07-15T00:28:09.035Z,12.96
2017-07-15T00:28:12.872Z,12.99
2017-07-15T00:28:17.202Z,13.13
2017-07-15T00:28:20.891Z,13.03
2017-07-15T00:28:24.730Z,12.98
2017-07-15T00:28:28.927Z,13.03
2017-07-15T00:28:33.134Z,12.99
2017-07-15T00:28:37.073Z,13.03
2017-07-15T00:28:41.036Z,13.03
2017-07-15T00:28:45.139Z,13.03
2017-07-15T00:28:49.230Z,12.98
2017-07-15T00:28:53.444Z,13.09
2017-07-15T00:28:57.903Z,12.98
2017-07-15T00:29:02.007Z,13.1
2017-07-15T00:29:06.088Z,13.04
2017-07-15T00:29:10.052Z,13.04
2017-07-15T00:29:14.019Z,13.06
2017-07-15T00:29:18.097Z,13.04
2017-07-15T00:29:22.045Z,13.06
2017-07-15T00:29:26.000Z,12.96
2017-07-15T00:29:30.213Z,13.06
2017-07-15T00:29:34.163Z,12.99
2017-07-15T00:29:38.109Z,13.07
2017-07-15T00:29:41.820Z,13.01
2017-07-15T00:29:45.523Z,13.01
2017-07-15T00:29:49.720Z,13.07
2017-07-15T00:29:53.684Z,13.01
2017-07-15T00:29:57.908Z,13.07
2017-07-15T00:30:02.036Z,13.07
2017-07-15T00:30:05.986Z,13.06
2017-07-15T00:30:09.947Z,13.03
2017-07-15T00:30:13.888Z,13.09
2017-07-15T00:30:18.090Z,13.06
2017-07-15T00:30:22.166Z,13.06
2017-07-15T00:30:26.388Z,12.96
2017-07-15T00:30:30.582Z,13.06
2017-07-15T00:30:34.400Z,13.06
2017-07-15T00:30:38.350Z,12.99
2017-07-15T00:30:42.560Z,13.06
2017-07-15T00:30:46.634Z,12.99
2017-07-15T00:30:50.842Z,13.04
2017-07-15T00:30:54.683Z,12.99
2017-07-15T00:30:59.062Z,13.09
2017-07-15T00:31:02.999Z,13.12
2017-07-15T00:31:07.321Z,13.01
2017-07-15T00:31:11.388Z,13.03
2017-07-15T00:31:15.459Z,13.07
2017-07-15T00:31:19.663Z,13.06
2017-07-15T00:31:23.624Z,13.13
2017-07-15T00:31:27.714Z,12.99
2017-07-15T00:31:31.905Z,13.04
2017-07-15T00:31:35.842Z,13.06
2017-07-15T00:31:39.926Z,13.1
2017-07-15T00:31:44.275Z,13.04
2017-07-15T00:31:48.234Z,13.13
2017-07-15T00:31:52.321Z,13.12
2017-07-15T00:31:56.685Z,13.06
2017-07-15T00:32:00.755Z,13.06
2017-07-15T00:32:04.676Z,13.06
2017-07-15T00:32:08.624Z,13.1
2017-07-15T00:32:12.579Z,13.12
2017-07-15T00:32:16.274Z,13.1
2017-07-15T00:32:19.992Z,12.99
2017-07-15T00:32:23.933Z,13.04
2017-07-15T00:32:28.141Z,13.13
2017-07-15T00:32:31.976Z,13.07
2017-07-15T00:32:35.798Z,13.1
2017-07-15T00:32:39.863Z,13.04
2017-07-15T00:32:44.064Z,13.07
2017-07-15T00:32:48.287Z,13.04
2017-07-15T00:32:52.479Z,13.04
2017-07-15T00:32:56.817Z,12.99
2017-07-15T00:33:00.906Z,13.04
2017-07-15T00:33:04.846Z,13.04
2017-07-15T00:33:09.033Z,13.12
2017-07-15T00:33:12.981Z,13.13
2017-07-15T00:33:16.956Z,13.04
2017-07-15T00:33:21.166Z,13.01
2017-07-15T00:33:24.991Z,13.12
2017-07-15T00:33:29.314Z,13.04
2017-07-15T00:33:33.522Z,13.13
2017-07-15T00:33:37.715Z,13.07
2017-07-15T00:33:42.043Z,13.12
2017-07-15T00:33:46.129Z,13.04
2017-07-15T00:33:50.228Z,13.1
2017-07-15T00:33:54.197Z,13.07
2017-07-15T00:33:58.168Z,13.07
2017-07-15T00:34:02.442Z,13.04
2017-07-15T00:34:06.396Z,13.01
2017-07-15T00:34:10.478Z,13.06
2017-07-15T00:34:14.324Z,13.09
2017-07-15T00:34:18.440Z,13.01
2017-07-15T00:34:22.368Z,13.07
2017-07-15T00:34:26.689Z,13.1
2017-07-15T00:34:30.524Z,13.09
2017-07-15T00:34:34.589Z,13.03
2017-07-15T00:34:38.672Z,13.06
2017-07-15T00:34:43.123Z,13.06
2017-07-15T00:34:47.325Z,13.03
2017-07-15T00:34:51.558Z,13.13
2017-07-15T00:34:55.509Z,13.12
2017-07-15T00:34:59.331Z,13.09
2017-07-15T00:35:03.159Z,13.09
2017-07-15T00:35:06.983Z,13.1
2017-07-15T00:35:10.934Z,13.03
2017-07-15T00:35:15.144Z,13.06
2017-07-15T00:35:19.230Z,13.09
2017-07-15T00:35:23.306Z,13.09
2017-07-15T00:35:27.364Z,13.1
2017-07-15T00:35:31.712Z,13.1
2017-07-15T00:35:35.811Z,13.06
2017-07-15T00:35:40.134Z,13.07
2017-07-15T00:35:44.338Z,13.06
2017-07-15T00:35:48.548Z,13.1
2017-07-15T00:35:52.255Z,13.09
2017-07-15T00:35:56.473Z,13.1
2017-07-15T00:36:00.663Z,13.1
2017-07-15T00:36:04.998Z,13.09
2017-07-15T00:36:09.067Z,13.03
2017-07-15T00:36:13.004Z,13.07
2017-07-15T00:36:16.964Z,13.06
2017-07-15T00:36:21.059Z,13.09
2017-07-15T00:36:25.322Z,13.09
2017-07-15T00:36:29.403Z,13.07
2017-07-15T00:36:33.737Z,13.06
2017-07-15T00:36:37.695Z,13.04
2017-07-15T00:36:41.873Z,13.09
2017-07-15T00:36:45.953Z,13.16
2017-07-15T00:36:50.290Z,13.04
2017-07-15T00:36:54.503Z,13.03
2017-07-15T00:36:58.715Z,13.06
2017-07-15T00:37:03.132Z,13.04
2017-07-15T00:37:07.093Z,13.13
2017-07-15T00:37:11.587Z,13.06
2017-07-15T00:37:15.426Z,13.12
2017-07-15T00:37:19.638Z,13.1
2017-07-15T00:37:23.886Z,13.1
2017-07-15T00:37:27.725Z,13.09
2017-07-15T00:37:32.176Z,13.1
2017-07-15T00:37:36.016Z,13.09
2017-07-15T00:37:39.837Z,13.04
2017-07-15T00:37:44.054Z,13.13
2017-07-15T00:37:48.251Z,13.1
2017-07-15T00:37:52.710Z,13.06
2017-07-15T00:37:56.923Z,13.1
2017-07-15T00:38:00.994Z,13.09
2017-07-15T00:38:05.076Z,13.01
2017-07-15T00:38:09.286Z,13.04
2017-07-15T00:38:13.099Z,13.1
2017-07-15T00:38:17.198Z,13.12
2017-07-15T00:38:21.291Z,13.07
2017-07-15T00:38:25.246Z,13.04
2017-07-15T00:38:29.207Z,13.1
2017-07-15T00:38:33.537Z,13.13
2017-07-15T00:38:37.609Z,13.07
2017-07-15T00:38:41.553Z,13.1
2017-07-15T00:38:45.384Z,13.12
2017-07-15T00:38:49.592Z,13.12
2017-07-15T00:38:53.677Z,13.06
2017-07-15T00:38:57.900Z,13.07
2017-07-15T00:39:02.100Z,13.03
2017-07-15T00:39:06.299Z,13.06
2017-07-15T00:39:10.495Z,13.16
2017-07-15T00:39:14.695Z,13.07
2017-07-15T00:39:18.787Z,13.12
2017-07-15T00:39:22.869Z,13.12
2017-07-15T00:39:26.942Z,13.06
2017-07-15T00:39:31.293Z,13.1
2017-07-15T00:39:35.104Z,13.09
2017-07-15T00:39:39.300Z,13.04
2017-07-15T00:39:43.387Z,13.13
2017-07-15T00:39:47.217Z,13.1
2017-07-15T00:39:51.164Z,13.04
2017-07-15T00:39:55.239Z,13.06
2017-07-15T00:39:59.191Z,13.03
2017-07-15T00:40:03.261Z,13.06
2017-07-15T00:40:07.472Z,13.03
2017-07-15T00:40:11.551Z,13.04
2017-07-15T00:40:15.380Z,13.06
2017-07-15T00:40:19.499Z,13.12
2017-07-15T00:40:23.694Z,13.1
2017-07-15T00:40:27.653Z,13.04
2017-07-15T00:40:31.862Z,13.06
2017-07-15T00:40:35.943Z,13.06
2017-07-15T00:40:40.150Z,13.04
2017-07-15T00:40:44.230Z,13.12
2017-07-15T00:40:48.551Z,13.09
2017-07-15T00:40:52.367Z,12.99
2017-07-15T00:40:56.182Z,13.13
2017-07-15T00:41:00.260Z,13.1
2017-07-15T00:41:04.206Z,13.07
2017-07-15T00:41:08.148Z,13.04
2017-07-15T00:41:12.349Z,13.01
2017-07-15T00:41:16.566Z,13.13
2017-07-15T00:41:20.771Z,13.09
2017-07-15T00:41:24.601Z,13.1
2017-07-15T00:41:29.060Z,13.13
2017-07-15T00:41:33.139Z,13.06
2017-07-15T00:41:36.984Z,13.12
2017-07-15T00:41:41.061Z,13.09
2017-07-15T00:41:45.265Z,13.12
2017-07-15T00:41:49.347Z,13.12
2017-07-15T00:41:53.297Z,13.13
2017-07-15T00:41:57.375Z,13.12
2017-07-15T00:42:01.597Z,13.14
2017-07-15T00:42:05.550Z,13.1
2017-07-15T00:42:09.631Z,13.12
2017-07-15T00:42:13.698Z,13.13
2017-07-15T00:42:17.651Z,13.12
2017-07-15T00:42:21.860Z,13.04
2017-07-15T00:42:26.192Z,13.09
2017-07-15T00:42:30.146Z,13.1
2017-07-15T00:42:34.338Z,13.13
2017-07-15T00:42:38.150Z,13.03
2017-07-15T00:42:42.236Z,13.01
2017-07-15T00:42:46.561Z,13.04
2017-07-15T00:42:50.769Z,13.09
2017-07-15T00:42:54.850Z,13.1
2017-07-15T00:42:59.173Z,13.07
2017-07-15T00:43:03.122Z,13.01
2017-07-15T00:43:06.937Z,13.1
2017-07-15T00:43:10.900Z,13.1
2017-07-15T00:43:14.979Z,13.06
2017-07-15T00:43:19.060Z,13.04
2017-07-15T00:43:23.165Z,13.04
2017-07-15T00:43:27.373Z,13.1
2017-07-15T00:43:31.438Z,13.06
2017-07-15T00:43:35.263Z,13.13
2017-07-15T00:43:39.471Z,13.09
2017-07-15T00:43:43.299Z,13.03
2017-07-15T00:43:47.127Z,13.12
2017-07-15T00:43:50.946Z,13.09
2017-07-15T00:43:55.169Z,13.06
2017-07-15T00:43:59.267Z,12.99
2017-07-15T00:44:03.071Z,13.04
2017-07-15T00:44:07.148Z,13.04
2017-07-15T00:44:10.842Z,12.99
2017-07-15T00:44:14.941Z,13.01
2017-07-15T00:44:18.904Z,13.1
2017-07-15T00:44:23.104Z,12.99
2017-07-15T00:44:27.189Z,13.06
2017-07-15T00:44:31.390Z,13.06
2017-07-15T00:44:35.217Z,13.1
2017-07-15T00:44:39.172Z,13.12
2017-07-15T00:44:43.505Z,13.01
2017-07-15T00:44:47.587Z,13.09
2017-07-15T00:44:51.788Z,13.04
2017-07-15T00:44:55.748Z,13.1
2017-07-15T00:44:59.945Z,13.06
2017-07-15T00:45:03.774Z,13.04
2017-07-15T00:45:07.732Z,13.04
2017-07-15T00:45:11.692Z,13.04
2017-07-15T00:45:15.401Z,13.12
2017-07-15T00:45:19.233Z,13.04
2017-07-15T00:45:23.316Z,13.03
2017-07-15T00:45:27.397Z,13.12
2017-07-15T00:45:31.340Z,13.01
2017-07-15T00:45:35.285Z,13.06
2017-07-15T00:45:39.483Z,13.1
2017-07-15T00:45:43.828Z,13.01
2017-07-15T00:45:48.158Z,12.99
2017-07-15T00:45:52.489Z,12.99
2017-07-15T00:45:56.434Z,13.01
2017-07-15T00:46:00.127Z,13.06
2017-07-15T00:46:03.864Z,12.99
2017-07-15T00:46:07.567Z,13.01
2017-07-15T00:46:11.769Z,13.04
2017-07-15T00:46:16.114Z,12.99
2017-07-15T00:46:20.186Z,13.03
2017-07-15T00:46:24.019Z,12.99
2017-07-15T00:46:28.234Z,13.03
2017-07-15T00:46:32.324Z,12.96
2017-07-15T00:46:36.287Z,12.95
2017-07-15T00:46:40.475Z,12.98
2017-07-15T00:46:44.424Z,13.03
2017-07-15T00:46:48.503Z,13.03
2017-07-15T00:46:52.837Z,13.03
2017-07-15T00:46:57.161Z,12.99
2017-07-15T00:47:01.251Z,13.07
2017-07-15T00:47:05.072Z,12.99
2017-07-15T00:47:09.021Z,12.99
2017-07-15T00:47:13.091Z,12.99
2017-07-15T00:47:17.062Z,12.96
2017-07-15T00:47:21.137Z,12.95
2017-07-15T00:47:25.344Z,13.07
2017-07-15T00:47:29.661Z,12.98
2017-07-15T00:47:33.731Z,12.99
2017-07-15T00:47:37.974Z,12.99
2017-07-15T00:47:42.169Z,12.96
2017-07-15T00:47:46.379Z,13.04
2017-07-15T00:47:50.455Z,13.07
2017-07-15T00:47:54.416Z,12.99
2017-07-15T00:47:58.501Z,12.98
2017-07-15T00:48:02.711Z,12.99
2017-07-15T00:48:06.788Z,12.94
2017-07-15T00:48:10.742Z,12.99
2017-07-15T00:48:14.819Z,12.98
2017-07-15T00:48:19.031Z,12.96
2017-07-15T00:48:23.010Z,12.99
2017-07-15T00:48:27.212Z,12.96
2017-07-15T00:48:31.281Z,12.99
2017-07-15T00:48:35.228Z,12.96
2017-07-15T00:48:38.915Z,12.95
2017-07-15T00:48:43.112Z,12.98
2017-07-15T00:48:46.924Z,12.98
2017-07-15T00:48:50.898Z,12.98
2017-07-15T00:48:55.232Z,12.98
2017-07-15T00:48:59.559Z,12.98
2017-07-15T00:49:03.721Z,13.01
2017-07-15T00:49:07.813Z,12.96
2017-07-15T00:49:11.756Z,13.04
2017-07-15T00:49:16.079Z,12.99
2017-07-15T00:49:20.421Z,12.92
2017-07-15T00:49:24.500Z,13.03
2017-07-15T00:49:28.954Z,12.94
2017-07-15T00:49:32.779Z,12.96
2017-07-15T00:49:36.738Z,13.01
2017-07-15T00:49:40.952Z,12.95
2017-07-15T00:49:45.271Z,13.06
2017-07-15T00:49:49.488Z,12.98
2017-07-15T00:49:53.570Z,12.99
2017-07-15T00:49:57.641Z,12.95
2017-07-15T00:50:02.098Z,12.95
2017-07-15T00:50:06.183Z,12.98
2017-07-15T00:50:10.408Z,12.99
2017-07-15T00:50:14.611Z,12.96
2017-07-15T00:50:18.942Z,12.98
2017-07-15T00:50:23.029Z,13.01
2017-07-15T00:50:26.998Z,12.94
2017-07-15T00:50:30.946Z,13.01
2017-07-15T00:50:34.898Z,12.99
2017-07-15T00:50:38.723Z,12.98
2017-07-15T00:50:43.055Z,12.94
2017-07-15T00:50:47.132Z,12.98
2017-07-15T00:50:50.957Z,12.98
2017-07-15T00:50:54.774Z,12.98
2017-07-15T00:50:58.983Z,12.96
2017-07-15T00:51:03.032Z,12.99
2017-07-15T00:51:07.104Z,13.03
2017-07-15T00:51:11.310Z,13.06
2017-07-15T00:51:15.395Z,13.03
2017-07-15T00:51:19.218Z,12.98
2017-07-15T00:51:22.902Z,13.01
2017-07-15T00:51:26.848Z,13.03
2017-07-15T00:51:31.174Z,13.06
2017-07-15T00:51:35.123Z,12.98
2017-07-15T00:51:39.072Z,12.96
2017-07-15T00:51:43.290Z,12.99
2017-07-15T00:51:47.495Z,13.01
2017-07-15T00:51:51.698Z,13.01
2017-07-15T00:51:55.771Z,13.04
2017-07-15T00:52:00.118Z,13.01
2017-07-15T00:52:04.069Z,13.06
2017-07-15T00:52:08.273Z,13.06
2017-07-15T00:52:12.360Z,13.01
2017-07-15T00:52:16.297Z,13.04
2017-07-15T00:52:20.764Z,12.98
2017-07-15T00:52:24.863Z,13.03
2017-07-15T00:52:29.092Z,12.95
2017-07-15T00:52:33.299Z,12.98